Aviation Digital Data Service (ADDS)

Output produced by METARs form (0103 UTC 24 July 2016)
found at http://aviationweather.gov/adds/metars/
 
KLFT 240053Z AUTO 21004KT 10SM CLR 31/25 A2991 RMK AO2 SLP128 T03110250 $